sensor_id;sensor_type;location;lat;lon;timestamp;pressure;altitude;pressure_sealevel;temperature;humidity
50011;BME280;35899;50.352;19.390;2022-11-20T00:01:17;97438.61;;;-6.30;79.38
50011;BME280;35899;50.352;19.390;2022-11-20T00:03:44;97430.70;;;-6.38;78.91
50011;BME280;35899;50.352;19.390;2022-11-20T00:06:13;97423.20;;;-6.46;78.89
50011;BME280;35899;50.352;19.390;2022-11-20T00:08:40;97424.48;;;-6.47;79.23
50011;BME280;35899;50.352;19.390;2022-11-20T00:11:10;97415.20;;;-6.45;79.61
50011;BME280;35899;50.352;19.390;2022-11-20T00:13:39;97421.48;;;-6.41;80.01
50011;BME280;35899;50.352;19.390;2022-11-20T00:16:06;97424.83;;;-6.40;79.88
50011;BME280;35899;50.352;19.390;2022-11-20T00:18:35;97427.41;;;-6.43;79.61
50011;BME280;35899;50.352;19.390;2022-11-20T00:21:04;97426.98;;;-6.44;79.69
50011;BME280;35899;50.352;19.390;2022-11-20T00:23:33;97420.23;;;-6.44;79.85
50011;BME280;35899;50.352;19.390;2022-11-20T00:26:05;97421.94;;;-6.44;79.79
50011;BME280;35899;50.352;19.390;2022-11-20T00:28:33;97416.89;;;-6.46;79.71
50011;BME280;35899;50.352;19.390;2022-11-20T00:31:11;97416.95;;;-6.49;79.59
50011;BME280;35899;50.352;19.390;2022-11-20T00:33:37;97415.70;;;-6.52;79.54
50011;BME280;35899;50.352;19.390;2022-11-20T00:36:07;97425.86;;;-6.57;79.37
50011;BME280;35899;50.352;19.390;2022-11-20T00:38:35;97423.36;;;-6.61;79.24
50011;BME280;35899;50.352;19.390;2022-11-20T00:41:05;97422.61;;;-6.68;79.10
50011;BME280;35899;50.352;19.390;2022-11-20T00:43:32;97421.81;;;-6.75;78.94
50011;BME280;35899;50.352;19.390;2022-11-20T00:46:00;97428.19;;;-6.81;78.85
50011;BME280;35899;50.352;19.390;2022-11-20T00:48:29;97424.46;;;-6.87;78.75
50011;BME280;35899;50.352;19.390;2022-11-20T00:50:56;97416.53;;;-6.94;78.67
50011;BME280;35899;50.352;19.390;2022-11-20T00:53:22;97422.46;;;-7.00;78.70
50011;BME280;35899;50.352;19.390;2022-11-20T00:55:58;97413.66;;;-7.04;78.48
50011;BME280;35899;50.352;19.390;2022-11-20T00:58:31;97415.03;;;-7.17;78.07
50011;BME280;35899;50.352;19.390;2022-11-20T01:01:19;97409.22;;;-7.27;78.06
50011;BME280;35899;50.352;19.390;2022-11-20T01:03:46;97405.45;;;-7.31;78.35
50011;BME280;35899;50.352;19.390;2022-11-20T01:08:48;97410.93;;;-7.30;79.19
50011;BME280;35899;50.352;19.390;2022-11-20T01:11:17;97406.28;;;-7.29;79.51
50011;BME280;35899;50.352;19.390;2022-11-20T01:13:47;97409.23;;;-7.28;79.51
50011;BME280;35899;50.352;19.390;2022-11-20T01:16:23;97406.27;;;-7.28;79.51
50011;BME280;35899;50.352;19.390;2022-11-20T01:18:53;97408.40;;;-7.27;79.46
50011;BME280;35899;50.352;19.390;2022-11-20T01:21:27;97401.23;;;-7.29;79.32
50011;BME280;35899;50.352;19.390;2022-11-20T01:23:59;97405.06;;;-7.32;79.26
50011;BME280;35899;50.352;19.390;2022-11-20T01:26:28;97398.38;;;-7.35;79.18
50011;BME280;35899;50.352;19.390;2022-11-20T01:28:57;97394.99;;;-7.37;79.08
50011;BME280;35899;50.352;19.390;2022-11-20T01:31:27;97392.07;;;-7.36;79.25
50011;BME280;35899;50.352;19.390;2022-11-20T01:33:58;97386.16;;;-7.35;79.33
50011;BME280;35899;50.352;19.390;2022-11-20T01:36:28;97384.46;;;-7.33;79.54
50011;BME280;35899;50.352;19.390;2022-11-20T01:38:57;97382.80;;;-7.33;79.58
50011;BME280;35899;50.352;19.390;2022-11-20T01:41:27;97383.20;;;-7.33;79.56
50011;BME280;35899;50.352;19.390;2022-11-20T01:43:55;97378.59;;;-7.34;79.51
50011;BME280;35899;50.352;19.390;2022-11-20T01:46:21;97378.16;;;-7.33;79.49
50011;BME280;35899;50.352;19.390;2022-11-20T01:51:35;97371.90;;;-7.36;79.30
50011;BME280;35899;50.352;19.390;2022-11-20T01:54:06;97368.19;;;-7.47;78.87
50011;BME280;35899;50.352;19.390;2022-11-20T01:56:37;97373.72;;;-7.55;78.73
50011;BME280;35899;50.352;19.390;2022-11-20T01:59:07;97375.44;;;-7.62;78.49
50011;BME280;35899;50.352;19.390;2022-11-20T02:01:34;97367.09;;;-7.69;78.36
50011;BME280;35899;50.352;19.390;2022-11-20T02:04:01;97367.54;;;-7.75;78.25
50011;BME280;35899;50.352;19.390;2022-11-20T02:06:50;97366.76;;;-7.82;78.00
50011;BME280;35899;50.352;19.390;2022-11-20T02:09:21;97360.08;;;-7.91;77.74
50011;BME280;35899;50.352;19.390;2022-11-20T02:11:48;97365.17;;;-7.98;77.78
50011;BME280;35899;50.352;19.390;2022-11-20T02:14:15;97371.47;;;-8.00;77.94
50011;BME280;35899;50.352;19.390;2022-11-20T02:16:45;97373.59;;;-8.04;77.96
50011;BME280;35899;50.352;19.390;2022-11-20T02:19:27;97376.97;;;-8.07;77.92
50011;BME280;35899;50.352;19.390;2022-11-20T02:22:18;97383.31;;;-8.14;77.67
50011;BME280;35899;50.352;19.390;2022-11-20T02:24:46;97394.64;;;-8.19;77.74
50011;BME280;35899;50.352;19.390;2022-11-20T02:27:14;97394.67;;;-8.20;77.85
50011;BME280;35899;50.352;19.390;2022-11-20T02:29:57;97391.30;;;-8.22;77.82
50011;BME280;35899;50.352;19.390;2022-11-20T02:32:30;97393.81;;;-8.22;78.16
50011;BME280;35899;50.352;19.390;2022-11-20T02:34:58;97403.05;;;-8.18;78.40
50011;BME280;35899;50.352;19.390;2022-11-20T02:37:30;97405.58;;;-8.20;78.12
50011;BME280;35899;50.352;19.390;2022-11-20T02:39:58;97403.89;;;-8.22;77.99
50011;BME280;35899;50.352;19.390;2022-11-20T02:42:24;97410.64;;;-8.31;77.53
50011;BME280;35899;50.352;19.390;2022-11-20T02:44:51;97403.95;;;-8.38;77.60
50011;BME280;35899;50.352;19.390;2022-11-20T02:47:17;97413.61;;;-8.40;77.76
50011;BME280;35899;50.352;19.390;2022-11-20T02:49:44;97409.02;;;-8.41;77.96
50011;BME280;35899;50.352;19.390;2022-11-20T02:52:10;97411.92;;;-8.40;78.22
50011;BME280;35899;50.352;19.390;2022-11-20T02:54:37;97406.46;;;-8.36;78.68
50011;BME280;35899;50.352;19.390;2022-11-20T02:57:03;97401.43;;;-8.32;78.85
50011;BME280;35899;50.352;19.390;2022-11-20T02:59:29;97401.40;;;-8.26;79.13
50011;BME280;35899;50.352;19.390;2022-11-20T03:01:56;97402.23;;;-8.22;79.05
50011;BME280;35899;50.352;19.390;2022-11-20T03:04:22;97396.77;;;-8.21;78.76
50011;BME280;35899;50.352;19.390;2022-11-20T03:06:48;97392.55;;;-8.22;78.54
50011;BME280;35899;50.352;19.390;2022-11-20T03:09:15;97390.07;;;-8.26;78.51
50011;BME280;35899;50.352;19.390;2022-11-20T03:11:41;97387.13;;;-8.23;78.77
50011;BME280;35899;50.352;19.390;2022-11-20T03:14:07;97392.55;;;-8.19;78.90
50011;BME280;35899;50.352;19.390;2022-11-20T03:16:34;97389.64;;;-8.22;78.43
50011;BME280;35899;50.352;19.390;2022-11-20T03:19:00;97393.02;;;-8.29;78.19
50011;BME280;35899;50.352;19.390;2022-11-20T03:21:27;97388.41;;;-8.33;78.25
50011;BME280;35899;50.352;19.390;2022-11-20T03:23:54;97392.19;;;-8.36;78.35
50011;BME280;35899;50.352;19.390;2022-11-20T03:26:23;97387.16;;;-8.34;78.56
50011;BME280;35899;50.352;19.390;2022-11-20T03:28:52;97387.98;;;-8.31;78.78
50011;BME280;35899;50.352;19.390;2022-11-20T03:31:22;97387.98;;;-8.28;78.96
50011;BME280;35899;50.352;19.390;2022-11-20T03:33:50;97390.89;;;-8.22;79.24
50011;BME280;35899;50.352;19.390;2022-11-20T03:36:18;97391.30;;;-8.16;79.30
50011;BME280;35899;50.352;19.390;2022-11-20T03:38:46;97393.38;;;-8.16;79.20
50011;BME280;35899;50.352;19.390;2022-11-20T03:41:19;97392.98;;;-8.18;79.25
50011;BME280;35899;50.352;19.390;2022-11-20T03:43:51;97395.90;;;-8.17;79.28
50011;BME280;35899;50.352;19.390;2022-11-20T03:46:18;97400.11;;;-8.16;79.31
50011;BME280;35899;50.352;19.390;2022-11-20T03:48:45;97401.34;;;-8.15;79.32
50011;BME280;35899;50.352;19.390;2022-11-20T03:51:17;97399.25;;;-8.14;79.37
50011;BME280;35899;50.352;19.390;2022-11-20T03:53:53;97398.81;;;-8.12;79.37
50011;BME280;35899;50.352;19.390;2022-11-20T03:56:23;97391.26;;;-8.13;79.38
50011;BME280;35899;50.352;19.390;2022-11-20T03:58:51;97387.08;;;-8.13;79.47
50011;BME280;35899;50.352;19.390;2022-11-20T04:01:23;97386.22;;;-8.10;79.77
50011;BME280;35899;50.352;19.390;2022-11-20T04:03:52;97386.62;;;-8.08;79.78
50011;BME280;35899;50.352;19.390;2022-11-20T04:06:28;97387.05;;;-8.05;79.84
50011;BME280;35899;50.352;19.390;2022-11-20T04:08:56;97383.66;;;-8.01;79.91
50011;BME280;35899;50.352;19.390;2022-11-20T04:11:26;97383.23;;;-8.02;79.69
50011;BME280;35899;50.352;19.390;2022-11-20T04:13:56;97384.06;;;-8.01;79.58
50011;BME280;35899;50.352;19.390;2022-11-20T04:16:25;97384.48;;;-8.02;79.43
50011;BME280;35899;50.352;19.390;2022-11-20T04:18:56;97378.63;;;-8.02;79.33
50011;BME280;35899;50.352;19.390;2022-11-20T04:21:24;97370.67;;;-8.05;79.21
50011;BME280;35899;50.352;19.390;2022-11-20T04:23:52;97364.38;;;-8.08;79.15
50011;BME280;35899;50.352;19.390;2022-11-20T04:26:19;97371.11;;;-8.10;79.04
50011;BME280;35899;50.352;19.390;2022-11-20T04:28:46;97366.51;;;-8.12;78.99
50011;BME280;35899;50.352;19.390;2022-11-20T04:31:15;97360.22;;;-8.15;78.98
50011;BME280;35899;50.352;19.390;2022-11-20T04:33:42;97357.30;;;-8.18;78.89
50011;BME280;35899;50.352;19.390;2022-11-20T04:36:17;97359.83;;;-8.22;78.76
50011;BME280;35899;50.352;19.390;2022-11-20T04:38:45;97362.77;;;-8.25;78.76
50011;BME280;35899;50.352;19.390;2022-11-20T04:41:16;97359.03;;;-8.26;78.74
50011;BME280;35899;50.352;19.390;2022-11-20T04:43:49;97346.05;;;-8.32;78.54
50011;BME280;35899;50.352;19.390;2022-11-20T04:46:18;97350.25;;;-8.37;78.47
50011;BME280;35899;50.352;19.390;2022-11-20T04:48:45;97349.86;;;-8.41;78.38
50011;BME280;35899;50.352;19.390;2022-11-20T04:51:12;97345.72;;;-8.47;78.08
50011;BME280;35899;50.352;19.390;2022-11-20T04:53:39;97342.80;;;-8.57;77.67
50011;BME280;35899;50.352;19.390;2022-11-20T04:56:07;97342.83;;;-8.65;77.47
50011;BME280;35899;50.352;19.390;2022-11-20T04:58:34;97337.43;;;-8.72;77.45
50011;BME280;35899;50.352;19.390;2022-11-20T05:01:15;97337.05;;;-8.85;77.11
50011;BME280;35899;50.352;19.390;2022-11-20T05:03:40;97336.20;;;-8.95;77.15
50011;BME280;35899;50.352;19.390;2022-11-20T05:06:07;97327.44;;;-8.96;77.44
50011;BME280;35899;50.352;19.390;2022-11-20T05:08:34;97323.23;;;-8.97;77.65
50011;BME280;35899;50.352;19.390;2022-11-20T05:11:02;97321.12;;;-8.95;78.06
50011;BME280;35899;50.352;19.390;2022-11-20T05:13:31;97324.06;;;-8.92;78.21
50011;BME280;35899;50.352;19.390;2022-11-20T05:16:09;97325.33;;;-8.92;78.14
50011;BME280;35899;50.352;19.390;2022-11-20T05:18:34;97321.13;;;-8.90;78.10
50011;BME280;35899;50.352;19.390;2022-11-20T05:21:02;97326.13;;;-8.87;78.29
50011;BME280;35899;50.352;19.390;2022-11-20T05:23:29;97321.09;;;-8.84;78.48
50011;BME280;35899;50.352;19.390;2022-11-20T05:25:57;97321.10;;;-8.81;78.33
50011;BME280;35899;50.352;19.390;2022-11-20T05:28:24;97317.73;;;-8.81;78.11
50011;BME280;35899;50.352;19.390;2022-11-20T05:30:52;97310.61;;;-8.83;78.14
50011;BME280;35899;50.352;19.390;2022-11-20T05:33:18;97314.38;;;-8.82;78.25
50011;BME280;35899;50.352;19.390;2022-11-20T05:35:45;97310.18;;;-8.80;78.28
50011;BME280;35899;50.352;19.390;2022-11-20T05:38:11;97308.09;;;-8.82;78.09
50011;BME280;35899;50.352;19.390;2022-11-20T05:40:38;97294.28;;;-8.88;77.90
50011;BME280;35899;50.352;19.390;2022-11-20T05:43:04;97300.14;;;-8.89;77.84
50011;BME280;35899;50.352;19.390;2022-11-20T05:45:30;97305.20;;;-8.91;77.75
50011;BME280;35899;50.352;19.390;2022-11-20T05:48:00;97303.92;;;-8.89;78.08
50011;BME280;35899;50.352;19.390;2022-11-20T05:50:27;97303.92;;;-8.88;78.18
50011;BME280;35899;50.352;19.390;2022-11-20T05:52:54;97303.09;;;-8.85;78.24
50011;BME280;35899;50.352;19.390;2022-11-20T05:55:21;97302.23;;;-8.87;78.26
50011;BME280;35899;50.352;19.390;2022-11-20T05:57:47;97306.01;;;-8.86;78.30
50011;BME280;35899;50.352;19.390;2022-11-20T06:00:15;97303.92;;;-8.86;78.29
50011;BME280;35899;50.352;19.390;2022-11-20T06:02:41;97310.64;;;-8.85;78.19
50011;BME280;35899;50.352;19.390;2022-11-20T06:05:08;97303.92;;;-8.88;78.11
50011;BME280;35899;50.352;19.390;2022-11-20T06:07:34;97308.55;;;-8.90;78.21
50011;BME280;35899;50.352;19.390;2022-11-20T06:10:01;97307.69;;;-8.89;78.41
50011;BME280;35899;50.352;19.390;2022-11-20T06:12:27;97306.44;;;-8.86;78.41
50011;BME280;35899;50.352;19.390;2022-11-20T06:14:54;97312.31;;;-8.93;77.55
50011;BME280;35899;50.352;19.390;2022-11-20T06:17:20;97314.02;;;-9.03;77.29
50011;BME280;35899;50.352;19.390;2022-11-20T06:19:47;97316.97;;;-9.05;77.58
50011;BME280;35899;50.352;19.390;2022-11-20T06:22:13;97313.59;;;-9.01;77.98
50011;BME280;35899;50.352;19.390;2022-11-20T06:24:40;97314.44;;;-8.94;78.29
50011;BME280;35899;50.352;19.390;2022-11-20T06:27:06;97307.27;;;-8.87;78.48
50011;BME280;35899;50.352;19.390;2022-11-20T06:29:32;97303.89;;;-8.78;78.59
50011;BME280;35899;50.352;19.390;2022-11-20T06:31:59;97305.55;;;-8.70;78.61
50011;BME280;35899;50.352;19.390;2022-11-20T06:34:25;97300.89;;;-8.62;78.60
50011;BME280;35899;50.352;19.390;2022-11-20T06:36:51;97313.47;;;-8.62;78.19
50011;BME280;35899;50.352;19.390;2022-11-20T06:39:18;97311.37;;;-8.61;77.99
50011;BME280;35899;50.352;19.390;2022-11-20T06:41:44;97310.09;;;-8.57;78.04
50011;BME280;35899;50.352;19.390;2022-11-20T06:44:10;97305.48;;;-8.54;78.01
50011;BME280;35899;50.352;19.390;2022-11-20T06:46:37;97307.14;;;-8.50;78.21
50011;BME280;35899;50.352;19.390;2022-11-20T06:49:03;97309.22;;;-8.45;78.34
50011;BME280;35899;50.352;19.390;2022-11-20T06:51:30;97310.81;;;-8.38;78.54
50011;BME280;35899;50.352;19.390;2022-11-20T06:53:56;97314.97;;;-8.29;78.65
50011;BME280;35899;50.352;19.390;2022-11-20T06:56:22;97304.03;;;-8.20;78.77
50011;BME280;35899;50.352;19.390;2022-11-20T06:58:49;97303.12;;;-8.10;78.80
50011;BME280;35899;50.352;19.390;2022-11-20T07:01:15;97295.50;;;-7.99;78.69
50011;BME280;35899;50.352;19.390;2022-11-20T07:03:42;97294.19;;;-7.92;78.63
50011;BME280;35899;50.352;19.390;2022-11-20T07:06:09;97298.73;;;-7.82;78.60
50011;BME280;35899;50.352;19.390;2022-11-20T07:08:36;97299.45;;;-7.69;78.66
50011;BME280;35899;50.352;19.390;2022-11-20T07:11:05;97297.69;;;-7.58;78.74
50011;BME280;35899;50.352;19.390;2022-11-20T07:13:32;97296.40;;;-7.52;78.47
50011;BME280;35899;50.352;19.390;2022-11-20T07:16:01;97297.61;;;-7.49;78.26
50011;BME280;35899;50.352;19.390;2022-11-20T07:18:29;97301.39;;;-7.47;78.07
50011;BME280;35899;50.352;19.390;2022-11-20T07:20:55;97300.94;;;-7.43;78.19
50011;BME280;35899;50.352;19.390;2022-11-20T07:23:22;97300.44;;;-7.35;78.36
50011;BME280;35899;50.352;19.390;2022-11-20T07:25:48;97298.30;;;-7.31;78.20
50011;BME280;35899;50.352;19.390;2022-11-20T07:28:15;97303.75;;;-7.29;78.07
50011;BME280;35899;50.352;19.390;2022-11-20T07:30:41;97300.78;;;-7.25;77.99
50011;BME280;35899;50.352;19.390;2022-11-20T07:33:07;97301.15;;;-7.19;78.07
50011;BME280;35899;50.352;19.390;2022-11-20T07:35:34;97295.58;;;-7.10;78.39
50011;BME280;35899;50.352;19.390;2022-11-20T07:38:00;97295.88;;;-6.99;78.52
50011;BME280;35899;50.352;19.390;2022-11-20T07:40:27;97301.27;;;-6.89;78.69
50011;BME280;35899;50.352;19.390;2022-11-20T07:42:55;97302.81;;;-6.79;78.83
50011;BME280;35899;50.352;19.390;2022-11-20T07:45:23;97301.84;;;-6.69;78.92
50011;BME280;35899;50.352;19.390;2022-11-20T07:47:50;97299.20;;;-6.58;79.12
50011;BME280;35899;50.352;19.390;2022-11-20T07:50:17;97296.11;;;-6.45;79.20
50011;BME280;35899;50.352;19.390;2022-11-20T07:52:45;97292.16;;;-6.34;79.27
50011;BME280;35899;50.352;19.390;2022-11-20T07:55:11;97286.95;;;-6.20;79.40
50011;BME280;35899;50.352;19.390;2022-11-20T07:57:38;97290.55;;;-6.08;79.48
50011;BME280;35899;50.352;19.390;2022-11-20T08:00:06;97292.50;;;-5.97;79.69
50011;BME280;35899;50.352;19.390;2022-11-20T08:02:39;97290.20;;;-5.86;79.91
50011;BME280;35899;50.352;19.390;2022-11-20T08:05:07;97291.29;;;-5.74;80.17
50011;BME280;35899;50.352;19.390;2022-11-20T08:07:41;97294.05;;;-5.62;80.27
50011;BME280;35899;50.352;19.390;2022-11-20T08:10:10;97292.19;;;-5.51;80.34
50011;BME280;35899;50.352;19.390;2022-11-20T08:12:48;97297.89;;;-5.38;80.56
50011;BME280;35899;50.352;19.390;2022-11-20T08:15:16;97296.39;;;-5.26;80.82
50011;BME280;35899;50.352;19.390;2022-11-20T08:17:42;97301.23;;;-5.12;80.93
50011;BME280;35899;50.352;19.390;2022-11-20T08:20:09;97305.23;;;-5.00;81.03
50011;BME280;35899;50.352;19.390;2022-11-20T08:22:35;97304.17;;;-4.88;81.07
50011;BME280;35899;50.352;19.390;2022-11-20T08:25:02;97303.93;;;-4.76;81.08
50011;BME280;35899;50.352;19.390;2022-11-20T08:27:28;97303.76;;;-4.67;80.94
50011;BME280;35899;50.352;19.390;2022-11-20T08:29:55;97297.69;;;-4.58;81.07
50011;BME280;35899;50.352;19.390;2022-11-20T08:32:22;97304.16;;;-4.43;81.29
50011;BME280;35899;50.352;19.390;2022-11-20T08:34:48;97300.53;;;-4.32;81.05
50011;BME280;35899;50.352;19.390;2022-11-20T08:37:15;97303.56;;;-4.16;81.30
50011;BME280;35899;50.352;19.390;2022-11-20T08:39:41;97308.59;;;-3.95;81.39
50011;BME280;35899;50.352;19.390;2022-11-20T08:42:07;97307.98;;;-3.67;81.45
50011;BME280;35899;50.352;19.390;2022-11-20T08:44:34;97309.37;;;-3.37;81.58
50011;BME280;35899;50.352;19.390;2022-11-20T08:47:00;97304.47;;;-3.10;81.39
50011;BME280;35899;50.352;19.390;2022-11-20T08:49:27;97301.81;;;-2.89;80.99
50011;BME280;35899;50.352;19.390;2022-11-20T08:51:53;97304.39;;;-2.75;80.45
50011;BME280;35899;50.352;19.390;2022-11-20T08:54:19;97299.91;;;-2.50;80.47
50011;BME280;35899;50.352;19.390;2022-11-20T08:56:46;97293.34;;;-2.27;80.69
50011;BME280;35899;50.352;19.390;2022-11-20T08:59:12;97296.14;;;-2.07;80.55
50011;BME280;35899;50.352;19.390;2022-11-20T09:01:39;97300.28;;;-1.89;80.22
50011;BME280;35899;50.352;19.390;2022-11-20T09:04:05;97298.08;;;-1.73;80.08
50011;BME280;35899;50.352;19.390;2022-11-20T09:06:32;97295.22;;;-1.63;79.83
50011;BME280;35899;50.352;19.390;2022-11-20T09:08:58;97297.06;;;-1.54;79.68
50011;BME280;35899;50.352;19.390;2022-11-20T09:11:24;97292.18;;;-1.47;79.59
50011;BME280;35899;50.352;19.390;2022-11-20T09:13:51;97291.11;;;-1.40;79.67
50011;BME280;35899;50.352;19.390;2022-11-20T09:16:17;97288.31;;;-1.32;79.61
50011;BME280;35899;50.352;19.390;2022-11-20T09:18:44;97286.38;;;-1.26;79.48
50011;BME280;35899;50.352;19.390;2022-11-20T09:21:12;97287.35;;;-1.16;79.63
50011;BME280;35899;50.352;19.390;2022-11-20T09:23:39;97284.27;;;-1.13;79.56
50011;BME280;35899;50.352;19.390;2022-11-20T09:26:09;97288.04;;;-1.11;79.27
50011;BME280;35899;50.352;19.390;2022-11-20T09:28:36;97292.73;;;-1.12;78.93
50011;BME280;35899;50.352;19.390;2022-11-20T09:31:07;97290.14;;;-1.11;79.28
50011;BME280;35899;50.352;19.390;2022-11-20T09:33:35;97289.81;;;-1.13;79.18
50011;BME280;35899;50.352;19.390;2022-11-20T09:36:02;97281.67;;;-1.11;79.30
50011;BME280;35899;50.352;19.390;2022-11-20T09:38:28;97276.62;;;-1.13;79.16
50011;BME280;35899;50.352;19.390;2022-11-20T09:40:57;97282.45;;;-1.09;79.46
50011;BME280;35899;50.352;19.390;2022-11-20T09:52:22;97283.79;;;-0.99;79.95
50011;BME280;35899;50.352;19.390;2022-11-20T09:54:52;97284.14;;;-0.96;79.73
50011;BME280;35899;50.352;19.390;2022-11-20T09:57:34;97282.75;;;-0.93;79.71
50011;BME280;35899;50.352;19.390;2022-11-20T10:00:02;97279.83;;;-0.94;79.68
50011;BME280;35899;50.352;19.390;2022-11-20T10:02:52;97280.06;;;-0.89;79.88
50011;BME280;35899;50.352;19.390;2022-11-20T10:05:51;97272.52;;;-0.80;79.89
50011;BME280;35899;50.352;19.390;2022-11-20T10:08:37;97273.16;;;-0.73;79.63
50011;BME280;35899;50.352;19.390;2022-11-20T10:13:55;97271.92;;;-0.63;79.78
50011;BME280;35899;50.352;19.390;2022-11-20T10:22:40;97261.48;;;-0.44;79.72
50011;BME280;35899;50.352;19.390;2022-11-20T10:25:13;97256.41;;;-0.33;79.56
50011;BME280;35899;50.352;19.390;2022-11-20T10:30:44;97251.56;;;-0.06;79.40
50011;BME280;35899;50.352;19.390;2022-11-20T10:33:23;97251.27;;;0.02;79.05
50011;BME280;35899;50.352;19.390;2022-11-20T10:38:56;97241.78;;;0.16;78.83
50011;BME280;35899;50.352;19.390;2022-11-20T10:41:34;97240.26;;;0.22;78.75
50011;BME280;35899;50.352;19.390;2022-11-20T10:44:21;97234.91;;;0.28;78.63
50011;BME280;35899;50.352;19.390;2022-11-20T10:46:49;97215.70;;;0.19;78.40
50011;BME280;35899;50.352;19.390;2022-11-20T10:49:18;97211.20;;;0.36;78.18
50011;BME280;35899;50.352;19.390;2022-11-20T10:52:03;97211.20;;;0.36;78.18
50011;BME280;35899;50.352;19.390;2022-11-20T11:00:33;97212.47;;;0.77;77.68
50011;BME280;35899;50.352;19.390;2022-11-20T11:02:59;97207.48;;;0.85;77.22
50011;BME280;35899;50.352;19.390;2022-11-20T11:08:35;97201.16;;;0.93;77.57
50011;BME280;35899;50.352;19.390;2022-11-20T11:11:15;97193.41;;;1.05;77.57
50011;BME280;35899;50.352;19.390;2022-11-20T11:13:40;97194.13;;;1.17;77.77
50011;BME280;35899;50.352;19.390;2022-11-20T11:16:16;97191.97;;;1.19;77.54
50011;BME280;35899;50.352;19.390;2022-11-20T11:18:44;97168.21;;;1.06;77.26
50011;BME280;35899;50.352;19.390;2022-11-20T11:21:10;97193.48;;;1.23;77.25
50011;BME280;35899;50.352;19.390;2022-11-20T11:23:42;97195.13;;;1.24;76.98
50011;BME280;35899;50.352;19.390;2022-11-20T11:26:20;97201.77;;;1.09;76.69
50011;BME280;35899;50.352;19.390;2022-11-20T11:28:57;97203.30;;;1.03;76.92
50011;BME280;35899;50.352;19.390;2022-11-20T11:31:27;97208.22;;;0.97;76.94
50011;BME280;35899;50.352;19.390;2022-11-20T11:36:35;97205.14;;;0.80;77.30
50011;BME280;35899;50.352;19.390;2022-11-20T11:39:03;97179.84;;;0.64;77.35
50011;BME280;35899;50.352;19.390;2022-11-20T11:41:33;97203.14;;;0.66;77.32
50011;BME280;35899;50.352;19.390;2022-11-20T11:44:16;97198.92;;;0.55;77.00
50011;BME280;35899;50.352;19.390;2022-11-20T11:46:52;97196.39;;;0.34;76.72
50011;BME280;35899;50.352;19.390;2022-11-20T11:49:19;97196.39;;;0.34;76.72
50011;BME280;35899;50.352;19.390;2022-11-20T11:52:15;97195.59;;;0.32;77.14
50011;BME280;35899;50.352;19.390;2022-11-20T12:00:19;97187.39;;;0.46;77.65
50011;BME280;35899;50.352;19.390;2022-11-20T12:05:40;97182.98;;;0.50;77.56
50011;BME280;35899;50.352;19.390;2022-11-20T12:08:26;97180.29;;;0.53;77.38
50011;BME280;35899;50.352;19.390;2022-11-20T12:11:12;97176.61;;;0.50;77.37
50011;BME280;35899;50.352;19.390;2022-11-20T12:16:34;97167.14;;;0.62;77.41
50011;BME280;35899;50.352;19.390;2022-11-20T12:19:01;97152.82;;;0.68;77.27
50011;BME280;35899;50.352;19.390;2022-11-20T12:21:39;97147.47;;;0.74;76.93
50011;BME280;35899;50.352;19.390;2022-11-20T12:30:21;97151.34;;;0.83;76.91
50011;BME280;35899;50.352;19.390;2022-11-20T12:44:19;97139.27;;;0.87;76.51
50011;BME280;35899;50.352;19.390;2022-11-20T12:47:18;97134.03;;;0.90;76.46
50011;BME280;35899;50.352;19.390;2022-11-20T12:52:37;97109.08;;;0.95;75.94
50011;BME280;35899;50.352;19.390;2022-11-20T12:55:33;97109.08;;;0.95;75.94
50011;BME280;35899;50.352;19.390;2022-11-20T13:04:07;97096.19;;;1.45;75.42
50011;BME280;35899;50.352;19.390;2022-11-20T13:06:49;97106.55;;;1.50;75.31
50011;BME280;35899;50.352;19.390;2022-11-20T13:09:19;97099.99;;;1.36;74.98
50011;BME280;35899;50.352;19.390;2022-11-20T13:11:57;97098.44;;;1.14;75.16
50011;BME280;35899;50.352;19.390;2022-11-20T13:14:40;97088.81;;;1.01;75.24
50011;BME280;35899;50.352;19.390;2022-11-20T13:17:50;97081.49;;;0.93;75.36
50011;BME280;35899;50.352;19.390;2022-11-20T13:20:20;97088.63;;;0.86;75.35
50011;BME280;35899;50.352;19.390;2022-11-20T13:22:52;97088.27;;;0.75;75.62
50011;BME280;35899;50.352;19.390;2022-11-20T13:25:37;97092.80;;;0.68;75.72
50011;BME280;35899;50.352;19.390;2022-11-20T13:30:51;97090.48;;;0.43;76.11
50011;BME280;35899;50.352;19.390;2022-11-20T13:33:36;97083.79;;;0.30;76.05
50011;BME280;35899;50.352;19.390;2022-11-20T13:36:21;97070.48;;;0.13;76.38
50011;BME280;35899;50.352;19.390;2022-11-20T13:38:54;97085.08;;;0.20;76.56
50011;BME280;35899;50.352;19.390;2022-11-20T13:41:33;97089.63;;;0.13;76.72
50011;BME280;35899;50.352;19.390;2022-11-20T13:44:23;97092.48;;;0.16;76.96
50011;BME280;35899;50.352;19.390;2022-11-20T13:46:57;97087.58;;;0.22;77.27
50011;BME280;35899;50.352;19.390;2022-11-20T13:49:29;97090.58;;;0.21;77.27
50011;BME280;35899;50.352;19.390;2022-11-20T13:58:18;97081.05;;;-0.06;77.37
50011;BME280;35899;50.352;19.390;2022-11-20T14:00:45;97079.02;;;-0.18;77.60
50011;BME280;35899;50.352;19.390;2022-11-20T14:03:22;97079.89;;;-0.30;77.75
50011;BME280;35899;50.352;19.390;2022-11-20T14:05:55;97083.69;;;-0.40;77.91
50011;BME280;35899;50.352;19.390;2022-11-20T14:08:27;97073.59;;;-0.53;78.10
50011;BME280;35899;50.352;19.390;2022-11-20T14:11:45;97068.16;;;-0.66;78.30
50011;BME280;35899;50.352;19.390;2022-11-20T14:16:27;97070.48;;;-0.94;78.80
50011;BME280;35899;50.352;19.390;2022-11-20T14:18:55;97072.59;;;-1.05;79.06
50011;BME280;35899;50.352;19.390;2022-11-20T14:21:25;97064.42;;;-1.13;79.22
50011;BME280;35899;50.352;19.390;2022-11-20T14:24:05;97062.20;;;-1.23;79.29
50011;BME280;35899;50.352;19.390;2022-11-20T14:26:33;97064.27;;;-1.32;79.42
50011;BME280;35899;50.352;19.390;2022-11-20T14:28:59;97058.73;;;-1.44;79.52
50011;BME280;35899;50.352;19.390;2022-11-20T14:31:27;97056.52;;;-1.53;79.61
50011;BME280;35899;50.352;19.390;2022-11-20T14:33:54;97063.19;;;-1.62;79.80
50011;BME280;35899;50.352;19.390;2022-11-20T14:36:23;97067.28;;;-1.70;79.91
50011;BME280;35899;50.352;19.390;2022-11-20T14:38:52;97059.55;;;-1.79;80.11